sensor_id;sensor_type;location;lat;lon;timestamp;pressure;altitude;pressure_sealevel;temperature;humidity
64602;BME280;68371;42.630;23.192;2023-04-07T00:00:13;92024.06;;;1.47;68.36
64602;BME280;68371;42.630;23.192;2023-04-07T00:02:40;92026.66;;;1.47;68.42
64602;BME280;68371;42.630;23.192;2023-04-07T00:05:07;92018.13;;;1.47;68.33
64602;BME280;68371;42.630;23.192;2023-04-07T00:07:34;92017.44;;;1.55;70.30
64602;BME280;68371;42.630;23.192;2023-04-07T00:10:00;92018.31;;;1.50;68.77
64602;BME280;68371;42.630;23.192;2023-04-07T00:12:28;92024.06;;;1.47;67.52
64602;BME280;68371;42.630;23.192;2023-04-07T00:14:55;92013.13;;;1.50;68.08
64602;BME280;68371;42.630;23.192;2023-04-07T00:17:22;92013.03;;;1.42;68.57
64602;BME280;68371;42.630;23.192;2023-04-07T00:19:48;92009.47;;;1.51;68.75
64602;BME280;68371;42.630;23.192;2023-04-07T00:22:15;92010.16;;;1.57;69.25
64602;BME280;68371;42.630;23.192;2023-04-07T00:24:42;92010.44;;;1.55;68.41
64602;BME280;68371;42.630;23.192;2023-04-07T00:27:09;91996.94;;;1.45;69.29
64602;BME280;68371;42.630;23.192;2023-04-07T00:29:38;92008.63;;;1.42;68.23
64602;BME280;68371;42.630;23.192;2023-04-07T00:32:04;91987.44;;;1.26;67.76
64602;BME280;68371;42.630;23.192;2023-04-07T00:34:31;92004.28;;;1.37;67.05
64602;BME280;68371;42.630;23.192;2023-04-07T00:36:58;92004.41;;;1.46;67.45
64602;BME280;68371;42.630;23.192;2023-04-07T00:39:24;92003.53;;;1.37;67.77
64602;BME280;68371;42.630;23.192;2023-04-07T00:41:52;92002.75;;;1.23;65.80
64602;BME280;68371;42.630;23.192;2023-04-07T00:44:19;92002.75;;;1.23;66.01
64602;BME280;68371;42.630;23.192;2023-04-07T00:46:47;92007.75;;;1.33;67.33
64602;BME280;68371;42.630;23.192;2023-04-07T00:49:14;92009.00;;;1.35;67.99
64602;BME280;68371;42.630;23.192;2023-04-07T00:51:42;91960.88;;;1.07;67.72
64602;BME280;68371;42.630;23.192;2023-04-07T00:54:09;91996.06;;;1.35;67.81
64602;BME280;68371;42.630;23.192;2023-04-07T00:56:36;91999.25;;;1.46;68.81
64602;BME280;68371;42.630;23.192;2023-04-07T00:59:03;91989.34;;;1.34;69.06
64602;BME280;68371;42.630;23.192;2023-04-07T01:01:34;92006.13;;;1.51;68.92
64602;BME280;68371;42.630;23.192;2023-04-07T01:04:08;92003.63;;;1.46;68.24
64602;BME280;68371;42.630;23.192;2023-04-07T01:06:46;92004.50;;;1.41;68.13
64602;BME280;68371;42.630;23.192;2023-04-07T01:09:18;91992.13;;;1.24;66.30
64602;BME280;68371;42.630;23.192;2023-04-07T01:11:51;92002.75;;;1.23;65.57
64602;BME280;68371;42.630;23.192;2023-04-07T01:14:20;91998.34;;;1.23;65.28
64602;BME280;68371;42.630;23.192;2023-04-07T01:16:50;92004.50;;;1.27;66.09
64602;BME280;68371;42.630;23.192;2023-04-07T01:19:32;91999.22;;;1.18;66.33
64602;BME280;68371;42.630;23.192;2023-04-07T01:21:59;92001.41;;;1.25;66.99
64602;BME280;68371;42.630;23.192;2023-04-07T01:24:41;92001.69;;;1.24;67.48
64602;BME280;68371;42.630;23.192;2023-04-07T01:27:18;91993.66;;;1.25;66.66
64602;BME280;68371;42.630;23.192;2023-04-07T01:29:49;91974.22;;;1.14;65.03
64602;BME280;68371;42.630;23.192;2023-04-07T01:32:18;91988.59;;;1.34;67.63
64602;BME280;68371;42.630;23.192;2023-04-07T01:34:47;91982.06;;;1.36;68.06
64602;BME280;68371;42.630;23.192;2023-04-07T01:37:15;91985.13;;;1.38;66.24
64602;BME280;68371;42.630;23.192;2023-04-07T01:39:42;91983.31;;;1.39;66.02
64602;BME280;68371;42.630;23.192;2023-04-07T01:42:10;91983.13;;;1.49;67.56
64602;BME280;68371;42.630;23.192;2023-04-07T01:44:38;91981.00;;;1.37;66.49
64602;BME280;68371;42.630;23.192;2023-04-07T01:47:07;91968.44;;;1.31;66.01
64602;BME280;68371;42.630;23.192;2023-04-07T01:49:35;91975.34;;;1.35;65.38
64602;BME280;68371;42.630;23.192;2023-04-07T01:52:03;91976.31;;;1.26;64.92
64602;BME280;68371;42.630;23.192;2023-04-07T01:54:31;91970.28;;;1.16;64.42
64602;BME280;68371;42.630;23.192;2023-04-07T01:56:58;91974.97;;;1.14;63.13
64602;BME280;68371;42.630;23.192;2023-04-07T01:59:26;91975.91;;;1.05;63.81
64602;BME280;68371;42.630;23.192;2023-04-07T02:01:53;91975.16;;;1.04;63.67
64602;BME280;68371;42.630;23.192;2023-04-07T02:04:26;91968.91;;;1.05;63.60
64602;BME280;68371;42.630;23.192;2023-04-07T02:07:07;91967.28;;;1.09;63.78
64602;BME280;68371;42.630;23.192;2023-04-07T02:09:37;91974.78;;;1.25;63.83
64602;BME280;68371;42.630;23.192;2023-04-07T02:12:07;91962.72;;;1.20;60.69
64602;BME280;68371;42.630;23.192;2023-04-07T02:14:36;91968.16;;;1.18;62.59
64602;BME280;68371;42.630;23.192;2023-04-07T02:17:03;91975.81;;;1.24;62.57
64602;BME280;68371;42.630;23.192;2023-04-07T02:19:31;91972.47;;;1.23;63.30
64602;BME280;68371;42.630;23.192;2023-04-07T02:22:01;91947.94;;;1.07;62.80
64602;BME280;68371;42.630;23.192;2023-04-07T02:24:28;91970.28;;;1.16;63.45
64602;BME280;68371;42.630;23.192;2023-04-07T02:26:55;91968.06;;;1.24;63.23
64602;BME280;68371;42.630;23.192;2023-04-07T02:29:21;91958.66;;;1.28;62.92
64602;BME280;68371;42.630;23.192;2023-04-07T02:31:48;91964.81;;;1.32;63.57
64602;BME280;68371;42.630;23.192;2023-04-07T02:34:15;91969.31;;;1.40;65.71
64602;BME280;68371;42.630;23.192;2023-04-07T02:36:44;91948.22;;;1.33;65.40
64602;BME280;68371;42.630;23.192;2023-04-07T02:39:11;91975.94;;;1.46;62.96
64602;BME280;68371;42.630;23.192;2023-04-07T02:41:37;91967.31;;;1.51;64.98
64602;BME280;68371;42.630;23.192;2023-04-07T02:44:04;91933.47;;;1.33;65.83
64602;BME280;68371;42.630;23.192;2023-04-07T02:46:31;91967.59;;;1.49;65.08
64602;BME280;68371;42.630;23.192;2023-04-07T02:48:58;91966.91;;;1.44;60.23
64602;BME280;68371;42.630;23.192;2023-04-07T02:51:24;91967.97;;;1.43;61.34
64602;BME280;68371;42.630;23.192;2023-04-07T02:53:53;91948.50;;;1.31;60.60
64602;BME280;68371;42.630;23.192;2023-04-07T02:56:20;91963.00;;;1.46;62.14
64602;BME280;68371;42.630;23.192;2023-04-07T02:58:46;91976.50;;;1.43;57.66
64602;BME280;68371;42.630;23.192;2023-04-07T03:01:13;91968.53;;;1.39;58.15
64602;BME280;68371;42.630;23.192;2023-04-07T03:03:44;91964.53;;;1.33;58.64
64602;BME280;68371;42.630;23.192;2023-04-07T03:06:12;91976.63;;;1.38;60.38
64602;BME280;68371;42.630;23.192;2023-04-07T03:08:38;91975.81;;;1.37;60.43
64602;BME280;68371;42.630;23.192;2023-04-07T03:11:07;91969.50;;;1.44;61.70
64602;BME280;68371;42.630;23.192;2023-04-07T03:13:34;91977.66;;;1.51;60.68
64602;BME280;68371;42.630;23.192;2023-04-07T03:16:01;91972.28;;;1.47;59.60
64602;BME280;68371;42.630;23.192;2023-04-07T03:18:27;91974.88;;;1.47;58.87
64602;BME280;68371;42.630;23.192;2023-04-07T03:20:54;91973.91;;;1.43;58.04
64602;BME280;68371;42.630;23.192;2023-04-07T03:23:21;91979.84;;;1.30;58.73
64602;BME280;68371;42.630;23.192;2023-04-07T03:25:48;91975.94;;;1.32;56.67
64602;BME280;68371;42.630;23.192;2023-04-07T03:28:17;91969.00;;;1.28;59.49
64602;BME280;68371;42.630;23.192;2023-04-07T03:30:44;91977.09;;;1.40;58.72
64602;BME280;68371;42.630;23.192;2023-04-07T03:33:10;91978.25;;;1.34;57.44
64602;BME280;68371;42.630;23.192;2023-04-07T03:35:37;91968.44;;;1.31;57.96
64602;BME280;68371;42.630;23.192;2023-04-07T03:38:03;91969.50;;;1.16;58.62
64602;BME280;68371;42.630;23.192;2023-04-07T03:40:30;91971.69;;;1.09;58.16
64602;BME280;68371;42.630;23.192;2023-04-07T03:42:57;91980.91;;;1.15;58.97
64602;BME280;68371;42.630;23.192;2023-04-07T03:45:26;91972.56;;;1.04;57.98
64602;BME280;68371;42.630;23.192;2023-04-07T03:47:52;91978.59;;;0.99;58.10
64602;BME280;68371;42.630;23.192;2023-04-07T03:50:19;91982.50;;;0.97;58.90
64602;BME280;68371;42.630;23.192;2023-04-07T03:52:46;91987.31;;;0.90;58.64
64602;BME280;68371;42.630;23.192;2023-04-07T03:55:14;91989.44;;;1.02;58.23
64602;BME280;68371;42.630;23.192;2023-04-07T03:57:41;91983.88;;;1.08;58.99
64602;BME280;68371;42.630;23.192;2023-04-07T04:00:08;91984.81;;;0.98;59.25
64602;BME280;68371;42.630;23.192;2023-04-07T04:02:37;91987.03;;;1.05;60.07
64602;BME280;68371;42.630;23.192;2023-04-07T04:05:04;91994.22;;;1.08;58.90
64602;BME280;68371;42.630;23.192;2023-04-07T04:07:31;91987.31;;;1.04;60.29
64602;BME280;68371;42.630;23.192;2023-04-07T04:09:58;91986.94;;;1.10;59.72
64602;BME280;68371;42.630;23.192;2023-04-07T04:12:24;91993.53;;;1.03;58.71
64602;BME280;68371;42.630;23.192;2023-04-07T04:14:51;91992.97;;;1.06;58.74
64602;BME280;68371;42.630;23.192;2023-04-07T04:17:18;91996.81;;;1.08;59.09
64602;BME280;68371;42.630;23.192;2023-04-07T04:19:47;91989.91;;;1.04;59.48
64602;BME280;68371;42.630;23.192;2023-04-07T04:22:15;91992.50;;;1.04;59.90
64602;BME280;68371;42.630;23.192;2023-04-07T04:24:42;91994.72;;;1.10;60.00
64602;BME280;68371;42.630;23.192;2023-04-07T04:27:09;92005.16;;;1.19;58.75
64602;BME280;68371;42.630;23.192;2023-04-07T04:29:35;92000.84;;;1.14;58.98
64602;BME280;68371;42.630;23.192;2023-04-07T04:32:02;92004.13;;;1.20;60.55
64602;BME280;68371;42.630;23.192;2023-04-07T04:34:29;91996.44;;;1.29;59.44
64602;BME280;68371;42.630;23.192;2023-04-07T04:36:57;92002.19;;;1.26;58.37
64602;BME280;68371;42.630;23.192;2023-04-07T04:39:24;92004.66;;;1.17;58.65
64602;BME280;68371;42.630;23.192;2023-04-07T04:41:51;92003.25;;;1.38;60.30
64602;BME280;68371;42.630;23.192;2023-04-07T04:44:18;91997.88;;;1.35;58.33
64602;BME280;68371;42.630;23.192;2023-04-07T04:46:44;92000.06;;;1.28;59.08
64602;BME280;68371;42.630;23.192;2023-04-07T04:49:11;91998.94;;;1.20;59.07
64602;BME280;68371;42.630;23.192;2023-04-07T04:51:38;92002.19;;;1.26;59.12
64602;BME280;68371;42.630;23.192;2023-04-07T04:54:07;92011.97;;;1.29;57.85
64602;BME280;68371;42.630;23.192;2023-04-07T04:56:34;92006.22;;;1.18;58.64
64602;BME280;68371;42.630;23.192;2023-04-07T04:59:01;92014.84;;;1.27;58.69
64602;BME280;68371;42.630;23.192;2023-04-07T05:01:28;92012.94;;;1.33;58.00
64602;BME280;68371;42.630;23.192;2023-04-07T05:03:55;92018.38;;;1.31;58.44
64602;BME280;68371;42.630;23.192;2023-04-07T05:06:23;92012.06;;;1.37;58.35
64602;BME280;68371;42.630;23.192;2023-04-07T05:08:49;92014.38;;;1.53;58.00
64602;BME280;68371;42.630;23.192;2023-04-07T05:11:17;92008.03;;;1.45;57.85
64602;BME280;68371;42.630;23.192;2023-04-07T05:13:46;92017.25;;;1.51;56.73
64602;BME280;68371;42.630;23.192;2023-04-07T05:16:12;92023.84;;;1.44;56.12
64602;BME280;68371;42.630;23.192;2023-04-07T05:18:39;92024.72;;;1.39;56.22
64602;BME280;68371;42.630;23.192;2023-04-07T05:21:06;92030.09;;;1.43;57.16
64602;BME280;68371;42.630;23.192;2023-04-07T05:23:32;92029.16;;;1.52;58.38
64602;BME280;68371;42.630;23.192;2023-04-07T05:25:59;92030.59;;;1.58;56.73
64602;BME280;68371;42.630;23.192;2023-04-07T05:28:27;92028.56;;;1.69;56.81
64602;BME280;68371;42.630;23.192;2023-04-07T05:30:54;92026.19;;;1.73;57.58
64602;BME280;68371;42.630;23.192;2023-04-07T05:33:21;92029.81;;;1.72;57.17
64602;BME280;68371;42.630;23.192;2023-04-07T05:35:47;92021.56;;;1.84;57.13
64602;BME280;68371;42.630;23.192;2023-04-07T05:38:14;92032.03;;;1.78;55.16
64602;BME280;68371;42.630;23.192;2023-04-07T05:40:41;92024.53;;;1.77;55.71
64602;BME280;68371;42.630;23.192;2023-04-07T05:43:08;92017.44;;;1.69;57.42
64602;BME280;68371;42.630;23.192;2023-04-07T05:45:36;92017.44;;;1.55;56.23
64602;BME280;68371;42.630;23.192;2023-04-07T05:48:03;92026.47;;;1.71;54.91
64602;BME280;68371;42.630;23.192;2023-04-07T05:50:30;92031.25;;;1.78;56.40
64602;BME280;68371;42.630;23.192;2023-04-07T05:52:56;92038.03;;;1.88;55.58
64602;BME280;68371;42.630;23.192;2023-04-07T05:55:23;92030.19;;;1.79;56.20
64602;BME280;68371;42.630;23.192;2023-04-07T05:57:51;92033.75;;;1.83;55.60
64602;BME280;68371;42.630;23.192;2023-04-07T06:00:18;92026.25;;;1.82;54.63
64602;BME280;68371;42.630;23.192;2023-04-07T06:02:47;92024.81;;;1.75;55.34
64602;BME280;68371;42.630;23.192;2023-04-07T06:05:14;92023.38;;;1.83;55.83
64602;BME280;68371;42.630;23.192;2023-04-07T06:07:40;92028.28;;;1.85;55.26
64602;BME280;68371;42.630;23.192;2023-04-07T06:10:07;92040.84;;;1.91;53.92
64602;BME280;68371;42.630;23.192;2023-04-07T06:12:34;92016.84;;;1.86;55.16
64602;BME280;68371;42.630;23.192;2023-04-07T06:15:01;92028.16;;;2.04;55.31
64602;BME280;68371;42.630;23.192;2023-04-07T06:17:28;92035.31;;;2.07;54.24
64602;BME280;68371;42.630;23.192;2023-04-07T06:19:57;92030.47;;;2.05;54.31
64602;BME280;68371;42.630;23.192;2023-04-07T06:22:23;92026.78;;;2.06;53.50
64602;BME280;68371;42.630;23.192;2023-04-07T06:24:50;92026.22;;;2.09;54.86
64602;BME280;68371;42.630;23.192;2023-04-07T06:27:17;92032.34;;;2.13;53.83
64602;BME280;68371;42.630;23.192;2023-04-07T06:29:44;92032.22;;;2.32;52.77
64602;BME280;68371;42.630;23.192;2023-04-07T06:32:11;92026.31;;;2.04;53.45
64602;BME280;68371;42.630;23.192;2023-04-07T06:34:38;91812.75;;;0.87;52.49
64602;BME280;68371;42.630;23.192;2023-04-07T06:37:06;92027.44;;;2.26;52.04
64602;BME280;68371;42.630;23.192;2023-04-07T06:39:32;92029.06;;;2.22;52.96
64602;BME280;68371;42.630;23.192;2023-04-07T06:41:59;92026.97;;;2.24;51.63
64602;BME280;68371;42.630;23.192;2023-04-07T06:44:26;92036.47;;;2.14;52.66
64602;BME280;68371;42.630;23.192;2023-04-07T06:46:53;92035.91;;;2.17;52.63
64602;BME280;68371;42.630;23.192;2023-04-07T06:49:20;92034.34;;;2.16;52.40
64602;BME280;68371;42.630;23.192;2023-04-07T06:51:47;92036.50;;;2.37;54.71
64602;BME280;68371;42.630;23.192;2023-04-07T06:54:15;92010.06;;;2.12;51.89
64602;BME280;68371;42.630;23.192;2023-04-07T06:56:42;92034.38;;;2.39;52.22
64602;BME280;68371;42.630;23.192;2023-04-07T06:59:09;92022.50;;;2.38;52.00
64602;BME280;68371;42.630;23.192;2023-04-07T07:01:36;92039.53;;;2.53;52.41
64602;BME280;68371;42.630;23.192;2023-04-07T07:04:02;92035.47;;;2.60;51.54
64602;BME280;68371;42.630;23.192;2023-04-07T07:25:09;92054.41;;;3.69;50.87
64602;BME280;68371;42.630;23.192;2023-04-07T07:27:36;92057.88;;;3.55;51.31
64602;BME280;68371;42.630;23.192;2023-04-07T07:30:04;92070.88;;;3.64;50.18
64602;BME280;68371;42.630;23.192;2023-04-07T07:32:31;92065.97;;;3.63;50.45
64602;BME280;68371;42.630;23.192;2023-04-07T07:34:57;92068.44;;;3.59;49.00
64602;BME280;68371;42.630;23.192;2023-04-07T07:37:25;92064.47;;;3.61;49.97
64602;BME280;68371;42.630;23.192;2023-04-07T07:39:52;92050.88;;;3.33;48.87
64602;BME280;68371;42.630;23.192;2023-04-07T07:42:20;92074.03;;;3.52;48.87
64602;BME280;68371;42.630;23.192;2023-04-07T07:44:47;92080.16;;;3.56;51.47
64602;BME280;68371;42.630;23.192;2023-04-07T07:47:13;92079.88;;;3.58;48.82
64602;BME280;68371;42.630;23.192;2023-04-07T07:49:40;92075.81;;;3.74;50.84
64602;BME280;68371;42.630;23.192;2023-04-07T07:52:07;92069.28;;;3.86;50.25
64602;BME280;68371;42.630;23.192;2023-04-07T07:54:35;92072.09;;;3.98;49.81
64602;BME280;68371;42.630;23.192;2023-04-07T07:57:01;92073.31;;;4.09;49.06
64602;BME280;68371;42.630;23.192;2023-04-07T07:59:30;92056.78;;;3.96;49.83
64602;BME280;68371;42.630;23.192;2023-04-07T08:01:57;92080.38;;;4.17;49.04
64602;BME280;68371;42.630;23.192;2023-04-07T08:04:24;92051.41;;;3.93;47.61
64602;BME280;68371;42.630;23.192;2023-04-07T08:06:51;92070.59;;;4.14;48.93
64602;BME280;68371;42.630;23.192;2023-04-07T08:09:19;92077.53;;;4.36;47.93
64602;BME280;68371;42.630;23.192;2023-04-07T08:11:46;92076.31;;;4.43;47.50
64602;BME280;68371;42.630;23.192;2023-04-07T08:14:13;92081.47;;;4.34;47.71
64602;BME280;68371;42.630;23.192;2023-04-07T08:16:42;92084.81;;;4.26;47.48
64602;BME280;68371;42.630;23.192;2023-04-07T08:19:09;92085.28;;;4.28;47.92
64602;BME280;68371;42.630;23.192;2023-04-07T08:21:35;92078.75;;;4.39;49.90
64602;BME280;68371;42.630;23.192;2023-04-07T08:24:02;92088.25;;;4.52;48.12
64602;BME280;68371;42.630;23.192;2023-04-07T08:26:29;92079.38;;;4.45;47.38
64602;BME280;68371;42.630;23.192;2023-04-07T08:28:56;92077.53;;;4.45;50.81
64602;BME280;68371;42.630;23.192;2023-04-07T08:31:23;92080.75;;;4.51;48.56
64602;BME280;68371;42.630;23.192;2023-04-07T08:33:52;92080.59;;;4.56;48.70
64602;BME280;68371;42.630;23.192;2023-04-07T08:36:22;92076.78;;;4.62;46.67
64602;BME280;68371;42.630;23.192;2023-04-07T08:38:49;92046.47;;;4.49;49.64
64602;BME280;68371;42.630;23.192;2023-04-07T08:41:17;92075.56;;;4.86;48.28
64602;BME280;68371;42.630;23.192;2023-04-07T09:17:10;92071.56;;;6.17;43.73
64602;BME280;68371;42.630;23.192;2023-04-07T09:19:36;92071.19;;;5.89;43.91
64602;BME280;68371;42.630;23.192;2023-04-07T09:22:03;92058.00;;;5.94;43.48
64602;BME280;68371;42.630;23.192;2023-04-07T09:24:30;92079.16;;;5.93;44.42
64602;BME280;68371;42.630;23.192;2023-04-07T09:27:11;92082.84;;;5.92;43.97
64602;BME280;68371;42.630;23.192;2023-04-07T09:29:41;92080.41;;;5.87;45.14
64602;BME280;68371;42.630;23.192;2023-04-07T09:32:09;92075.28;;;6.08;45.30
64602;BME280;68371;42.630;23.192;2023-04-07T09:34:38;92093.78;;;6.24;45.22
64602;BME280;68371;42.630;23.192;2023-04-07T09:37:06;92084.09;;;6.24;45.60
64602;BME280;68371;42.630;23.192;2023-04-07T09:39:47;92080.13;;;6.27;43.91
64602;BME280;68371;42.630;23.192;2023-04-07T09:42:14;92081.38;;;6.20;43.66
64602;BME280;68371;42.630;23.192;2023-04-07T09:44:41;92089.53;;;6.10;43.77
64602;BME280;68371;42.630;23.192;2023-04-07T09:47:10;92077.41;;;6.14;45.31
64602;BME280;68371;42.630;23.192;2023-04-07T09:49:48;92087.53;;;6.16;44.99
64602;BME280;68371;42.630;23.192;2023-04-07T09:52:15;92084.16;;;6.15;43.52
64602;BME280;68371;42.630;23.192;2023-04-07T09:54:42;92078.94;;;6.15;44.74
64602;BME280;68371;42.630;23.192;2023-04-07T09:57:10;92085.66;;;6.46;48.29
64602;BME280;68371;42.630;23.192;2023-04-07T09:59:39;92084.59;;;6.68;44.32
64602;BME280;68371;42.630;23.192;2023-04-07T10:02:09;92076.25;;;6.54;44.46
64602;BME280;68371;42.630;23.192;2023-04-07T10:04:38;92054.72;;;6.36;44.81
64602;BME280;68371;42.630;23.192;2023-04-07T10:07:05;92086.66;;;6.84;44.91
64602;BME280;68371;42.630;23.192;2023-04-07T10:09:32;92075.75;;;6.60;45.73
64602;BME280;68371;42.630;23.192;2023-04-07T10:11:59;92089.38;;;6.66;44.93
64602;BME280;68371;42.630;23.192;2023-04-07T10:14:27;92086.16;;;6.69;44.67
64602;BME280;68371;42.630;23.192;2023-04-07T10:16:56;92089.66;;;6.73;43.00
64602;BME280;68371;42.630;23.192;2023-04-07T10:19:23;92080.78;;;6.66;43.58
64602;BME280;68371;42.630;23.192;2023-04-07T10:21:54;92095.50;;;6.91;45.37
64602;BME280;68371;42.630;23.192;2023-04-07T10:24:32;92083.59;;;6.81;44.65
64602;BME280;68371;42.630;23.192;2023-04-07T10:27:06;92080.09;;;6.77;43.83
64602;BME280;68371;42.630;23.192;2023-04-07T10:29:38;92092.66;;;6.63;43.98
64602;BME280;68371;42.630;23.192;2023-04-07T10:32:06;92087.66;;;6.70;44.61
64602;BME280;68371;42.630;23.192;2023-04-07T10:35:04;92090.84;;;6.97;44.30
64602;BME280;68371;42.630;23.192;2023-04-07T10:37:32;92083.47;;;6.78;43.45
64602;BME280;68371;42.630;23.192;2023-04-07T10:40:27;92096.75;;;6.64;43.41
64602;BME280;68371;42.630;23.192;2023-04-07T10:42:55;92098.31;;;6.65;43.72
64602;BME280;68371;42.630;23.192;2023-04-07T10:45:56;92101.31;;;6.76;43.99
64602;BME280;68371;42.630;23.192;2023-04-07T10:48:26;92102.28;;;6.62;44.17
64602;BME280;68371;42.630;23.192;2023-04-07T10:51:16;92100.66;;;6.58;43.38
64602;BME280;68371;42.630;23.192;2023-04-07T10:57:11;92094.81;;;6.82;43.60
64602;BME280;68371;42.630;23.192;2023-04-07T11:00:13;92103.53;;;6.65;43.79
64602;BME280;68371;42.630;23.192;2023-04-07T11:02:40;92104.09;;;6.71;44.01
64602;BME280;68371;42.630;23.192;2023-04-07T11:05:07;92069.63;;;6.35;45.83
64602;BME280;68371;42.630;23.192;2023-04-07T11:07:51;92106.75;;;6.41;43.14
64602;BME280;68371;42.630;23.192;2023-04-07T11:10:19;92111.75;;;6.46;44.68
64602;BME280;68371;42.630;23.192;2023-04-07T11:13:04;92110.63;;;6.35;44.58
64602;BME280;68371;42.630;23.192;2023-04-07T11:15:32;92109.81;;;6.43;44.92
64602;BME280;68371;42.630;23.192;2023-04-07T11:18:10;92110.19;;;6.54;44.14
64602;BME280;68371;42.630;23.192;2023-04-07T11:20:45;92106.06;;;6.74;44.30
64602;BME280;68371;42.630;23.192;2023-04-07T11:23:13;92111.31;;;6.44;44.10
64602;BME280;68371;42.630;23.192;2023-04-07T11:25:42;92103.88;;;6.55;44.38
64602;BME280;68371;42.630;23.192;2023-04-07T11:28:12;92097.66;;;6.47;44.27
64602;BME280;68371;42.630;23.192;2023-04-07T11:30:44;92108.09;;;6.47;44.24
64602;BME280;68371;42.630;23.192;2023-04-07T11:33:14;92109.22;;;6.58;44.59
64602;BME280;68371;42.630;23.192;2023-04-07T11:35:50;92108.34;;;6.54;44.40
64602;BME280;68371;42.630;23.192;2023-04-07T11:38:17;92110.84;;;6.72;44.82
64602;BME280;68371;42.630;23.192;2023-04-07T11:40:45;92108.25;;;6.72;43.37
64602;BME280;68371;42.630;23.192;2023-04-07T11:43:18;92110.72;;;6.68;44.99
64602;BME280;68371;42.630;23.192;2023-04-07T11:45:45;92116.25;;;6.67;43.93
64602;BME280;68371;42.630;23.192;2023-04-07T11:48:31;92116.66;;;6.77;45.17
64602;BME280;68371;42.630;23.192;2023-04-07T11:50:59;92113.66;;;6.88;42.82
64602;BME280;68371;42.630;23.192;2023-04-07T11:53:27;92108.38;;;6.96;44.08
64602;BME280;68371;42.630;23.192;2023-04-07T11:56:02;92095.22;;;7.05;44.63
64602;BME280;68371;42.630;23.192;2023-04-07T11:58:31;92104.13;;;6.92;43.14
64602;BME280;68371;42.630;23.192;2023-04-07T12:00:59;92080.78;;;6.66;44.10
64602;BME280;68371;42.630;23.192;2023-04-07T12:03:29;92105.56;;;6.80;45.59
64602;BME280;68371;42.630;23.192;2023-04-07T12:05:56;92099.72;;;6.84;43.36
64602;BME280;68371;42.630;23.192;2023-04-07T12:08:36;92093.19;;;7.11;43.25
64602;BME280;68371;42.630;23.192;2023-04-07T12:11:03;92108.28;;;7.26;44.01
64602;BME280;68371;42.630;23.192;2023-04-07T12:13:32;92097.50;;;7.28;43.02
64602;BME280;68371;42.630;23.192;2023-04-07T12:15:59;92115.09;;;6.97;42.70
64602;BME280;68371;42.630;23.192;2023-04-07T12:18:26;92102.69;;;7.15;43.36
64602;BME280;68371;42.630;23.192;2023-04-07T12:20:53;92095.78;;;7.32;43.63
64602;BME280;68371;42.630;23.192;2023-04-07T12:23:21;92109.00;;;7.48;42.42
64602;BME280;68371;42.630;23.192;2023-04-07T12:25:47;92107.19;;;7.48;42.65
64602;BME280;68371;42.630;23.192;2023-04-07T12:28:14;92109.00;;;7.48;42.31
64602;BME280;68371;42.630;23.192;2023-04-07T12:30:42;92100.25;;;7.65;42.38
64602;BME280;68371;42.630;23.192;2023-04-07T12:33:09;92100.56;;;7.63;42.45
64602;BME280;68371;42.630;23.192;2023-04-07T12:35:36;92102.44;;;7.62;42.26
64602;BME280;68371;42.630;23.192;2023-04-07T12:38:04;92099.47;;;7.64;42.52
64602;BME280;68371;42.630;23.192;2023-04-07T12:40:32;92101.16;;;7.81;41.09
64602;BME280;68371;42.630;23.192;2023-04-07T12:42:59;92107.47;;;7.92;42.26
64602;BME280;68371;42.630;23.192;2023-04-07T12:45:26;92102.59;;;8.03;42.96
64602;BME280;68371;42.630;23.192;2023-04-07T12:47:57;92103.91;;;8.34;42.15
64602;BME280;68371;42.630;23.192;2023-04-07T12:50:23;92101.00;;;8.60;41.22
64602;BME280;68371;42.630;23.192;2023-04-07T12:52:51;92092.75;;;8.74;40.73
64602;BME280;68371;42.630;23.192;2023-04-07T12:55:17;92095.56;;;8.93;41.01
64602;BME280;68371;42.630;23.192;2023-04-07T12:57:44;92100.22;;;9.12;41.75
64602;BME280;68371;42.630;23.192;2023-04-07T13:00:12;92100.75;;;9.18;40.74
64602;BME280;68371;42.630;23.192;2023-04-07T13:02:39;92098.00;;;9.27;41.20
64602;BME280;68371;42.630;23.192;2023-04-07T13:05:08;92098.28;;;9.37;40.00
64602;BME280;68371;42.630;23.192;2023-04-07T13:07:35;92102.13;;;9.28;40.62
64602;BME280;68371;42.630;23.192;2023-04-07T13:10:02;92104.56;;;9.20;40.26
64602;BME280;68371;42.630;23.192;2023-04-07T13:12:30;92103.50;;;9.09;40.50
64602;BME280;68371;42.630;23.192;2023-04-07T13:14:57;92097.66;;;8.88;40.37
64602;BME280;68371;42.630;23.192;2023-04-07T13:17:24;92104.63;;;8.96;39.75
64602;BME280;68371;42.630;23.192;2023-04-07T13:19:50;92101.69;;;8.97;40.42
64602;BME280;68371;42.630;23.192;2023-04-07T13:22:19;92102.50;;;8.73;39.97
64602;BME280;68371;42.630;23.192;2023-04-07T13:24:46;92109.44;;;8.94;40.07
64602;BME280;68371;42.630;23.192;2023-04-07T13:27:13;92106.50;;;8.83;39.74
64602;BME280;68371;42.630;23.192;2023-04-07T13:29:39;92114.69;;;8.81;40.79
64602;BME280;68371;42.630;23.192;2023-04-07T13:32:07;92108.19;;;8.51;40.26
64602;BME280;68371;42.630;23.192;2023-04-07T13:34:35;92105.38;;;8.44;40.94
64602;BME280;68371;42.630;23.192;2023-04-07T13:37:02;92115.34;;;8.29;41.24
64602;BME280;68371;42.630;23.192;2023-04-07T13:39:31;92113.84;;;8.28;40.35
64602;BME280;68371;42.630;23.192;2023-04-07T13:41:58;92123.13;;;8.38;40.12
64602;BME280;68371;42.630;23.192;2023-04-07T13:44:26;92084.19;;;8.24;42.15
64602;BME280;68371;42.630;23.192;2023-04-07T13:46:53;92121.50;;;8.46;40.95
64602;BME280;68371;42.630;23.192;2023-04-07T13:49:20;92128.50;;;8.54;41.71
64602;BME280;68371;42.630;23.192;2023-04-07T13:51:47;92127.25;;;8.27;46.65
64602;BME280;68371;42.630;23.192;2023-04-07T13:54:15;92127.47;;;8.21;47.30
64602;BME280;68371;42.630;23.192;2023-04-07T13:56:43;92135.69;;;7.87;49.81
64602;BME280;68371;42.630;23.192;2023-04-07T13:59:12;92144.63;;;7.86;48.73
64602;BME280;68371;42.630;23.192;2023-04-07T14:01:39;92147.69;;;7.88;49.48